EWG6931 EDDF-LEPA
Flight info
| Callsign | EWG6931 |
|---|---|
| Flight time | 1h 53m |
| Altitude | 35000 |
| Route | ANEKI2L ANEKI Y163 HERBI Y164 MOPAN DCT LUTIX/N0450F370 DCT BENOT DCT NEMOS DCT GEVEA DCT INCUS DCT BALSI DCT RETNO DCT TUPOX DCT MTG DCT DIVKO DCT VATIR DCT PIVUS N852 VERSO L129 LUNIK |
| Aircraft | A320/M-SDE3FGHIRWY/LB1 |
Departure
| Time | 2026-05-05 19:21 |
|---|---|
| Airport | Frankfurt Main Airport (EDDF) |
Arrival
| Time | 2026-05-05 21:14 |
|---|---|
| Airport | Palma de Mallorca Airport (LEPA) |
| Time | Latitude | Longitude | Altitude | Speed | Heading |
|---|---|---|---|---|---|
| 2026-05-05 18:32 | 50.04883 | 8.57440 | 358 ft | 0 kts | 217° |
| 2026-05-05 19:07 | 50.04899 | 8.57459 | 365 ft | 3 kts | 218° |
| 2026-05-05 19:07 | 50.04912 | 8.57474 | 360 ft | 3 kts | 214° |
| 2026-05-05 19:07 | 50.04938 | 8.57494 | 358 ft | 3 kts | 166° |
| 2026-05-05 19:07 | 50.04945 | 8.57490 | 357 ft | 3 kts | 115° |
| 2026-05-05 19:08 | 50.04936 | 8.57523 | 358 ft | 3 kts | 114° |
| 2026-05-05 19:08 | 50.04926 | 8.57557 | 360 ft | 3 kts | 114° |
| 2026-05-05 19:08 | 50.04916 | 8.57591 | 360 ft | 3 kts | 114° |
| 2026-05-05 19:08 | 50.04906 | 8.57625 | 359 ft | 3 kts | 114° |
| 2026-05-05 19:09 | 50.04905 | 8.57630 | 358 ft | 0 kts | 114° |
| 2026-05-05 19:13 | 50.04894 | 8.57670 | 361 ft | 7 kts | 114° |
| 2026-05-05 19:13 | 50.04870 | 8.57754 | 363 ft | 11 kts | 113° |
| 2026-05-05 19:14 | 50.04829 | 8.57880 | 362 ft | 15 kts | 134° |
| 2026-05-05 19:14 | 50.04734 | 8.57918 | 358 ft | 13 kts | 197° |
| 2026-05-05 19:14 | 50.04687 | 8.57818 | 362 ft | 11 kts | 251° |
| 2026-05-05 19:14 | 50.04663 | 8.57711 | 362 ft | 10 kts | 251° |
| 2026-05-05 19:15 | 50.04631 | 8.57577 | 357 ft | 17 kts | 249° |
| 2026-05-05 19:15 | 50.04587 | 8.57390 | 359 ft | 19 kts | 249° |
| 2026-05-05 19:15 | 50.04539 | 8.57188 | 363 ft | 21 kts | 250° |
| 2026-05-05 19:15 | 50.04489 | 8.56973 | 358 ft | 21 kts | 249° |
| 2026-05-05 19:16 | 50.04436 | 8.56758 | 364 ft | 22 kts | 249° |
| 2026-05-05 19:16 | 50.04380 | 8.56524 | 363 ft | 24 kts | 250° |
| 2026-05-05 19:16 | 50.04320 | 8.56275 | 357 ft | 25 kts | 249° |
| 2026-05-05 19:16 | 50.04257 | 8.56014 | 361 ft | 26 kts | 249° |
| 2026-05-05 19:17 | 50.04191 | 8.55741 | 356 ft | 28 kts | 250° |
| 2026-05-05 19:17 | 50.04125 | 8.55461 | 352 ft | 27 kts | 250° |
| 2026-05-05 19:17 | 50.04081 | 8.55278 | 361 ft | 27 kts | 249° |
| 2026-05-05 19:17 | 50.04002 | 8.54945 | 356 ft | 25 kts | 250° |
| 2026-05-05 19:18 | 50.03960 | 8.54769 | 357 ft | 26 kts | 249° |
| 2026-05-05 19:18 | 50.03877 | 8.54425 | 357 ft | 23 kts | 250° |
| 2026-05-05 19:18 | 50.03796 | 8.54208 | 348 ft | 24 kts | 249° |
| 2026-05-05 19:18 | 50.03737 | 8.53959 | 344 ft | 25 kts | 250° |
| 2026-05-05 19:19 | 50.03674 | 8.53696 | 345 ft | 27 kts | 249° |
| 2026-05-05 19:19 | 50.03628 | 8.53516 | 337 ft | 27 kts | 248° |
| 2026-05-05 19:19 | 50.03561 | 8.53235 | 338 ft | 28 kts | 249° |
| 2026-05-05 19:19 | 50.03507 | 8.53012 | 338 ft | 18 kts | 250° |
| 2026-05-05 19:20 | 50.03460 | 8.52820 | 333 ft | 20 kts | 248° |
| 2026-05-05 19:20 | 50.03403 | 8.52634 | 333 ft | 19 kts | 225° |
| 2026-05-05 19:20 | 50.03276 | 8.52594 | 333 ft | 20 kts | 180° |
| 2026-05-05 19:20 | 50.03038 | 8.52596 | 335 ft | 65 kts | 180° |
| 2026-05-05 19:21 | 50.02372 | 8.52601 | 335 ft | 124 kts | 180° |
| 2026-05-05 19:21 | 50.01345 | 8.52601 | 370 ft | 166 kts | 181° |
| 2026-05-05 19:21 | 50.00201 | 8.52602 | 994 ft | 165 kts | 180° |
| 2026-05-05 19:21 | 49.99052 | 8.52663 | 1659 ft | 168 kts | 180° |
| 2026-05-05 19:22 | 49.97820 | 8.52748 | 2017 ft | 187 kts | 180° |
| 2026-05-05 19:22 | 49.96449 | 8.52841 | 2332 ft | 212 kts | 179° |
| 2026-05-05 19:22 | 49.94922 | 8.52950 | 2904 ft | 224 kts | 179° |
| 2026-05-05 19:22 | 49.93347 | 8.53067 | 3658 ft | 230 kts | 180° |
| 2026-05-05 19:23 | 49.91740 | 8.53184 | 3948 ft | 230 kts | 180° |
| 2026-05-05 19:23 | 49.90134 | 8.53300 | 4427 ft | 232 kts | 180° |
| 2026-05-05 19:23 | 49.88532 | 8.53414 | 5322 ft | 232 kts | 180° |
| 2026-05-05 19:23 | 49.86912 | 8.53525 | 6156 ft | 233 kts | 180° |
| 2026-05-05 19:24 | 49.85280 | 8.53639 | 6914 ft | 236 kts | 180° |
| 2026-05-05 19:24 | 49.83626 | 8.53759 | 7672 ft | 239 kts | 180° |
| 2026-05-05 19:24 | 49.81952 | 8.53878 | 8452 ft | 242 kts | 180° |
| 2026-05-05 19:24 | 49.80257 | 8.53998 | 9245 ft | 245 kts | 180° |
| 2026-05-05 19:25 | 49.78547 | 8.54114 | 9999 ft | 248 kts | 181° |
| 2026-05-05 19:25 | 49.76803 | 8.53976 | 10486 ft | 262 kts | 187° |
| 2026-05-05 19:25 | 49.74933 | 8.53720 | 10719 ft | 285 kts | 187° |
| 2026-05-05 19:25 | 49.72876 | 8.53436 | 10948 ft | 308 kts | 187° |
| 2026-05-05 19:26 | 49.70662 | 8.53134 | 11234 ft | 328 kts | 187° |
| 2026-05-05 19:26 | 49.68366 | 8.52824 | 11839 ft | 334 kts | 186° |
| 2026-05-05 19:26 | 49.66040 | 8.52515 | 12642 ft | 334 kts | 186° |
| 2026-05-05 19:26 | 49.63768 | 8.52218 | 13352 ft | 338 kts | 186° |
| 2026-05-05 19:27 | 49.61398 | 8.51905 | 13918 ft | 344 kts | 186° |
| 2026-05-05 19:27 | 49.59002 | 8.51588 | 14511 ft | 348 kts | 186° |
| 2026-05-05 19:27 | 49.56579 | 8.51272 | 15125 ft | 352 kts | 186° |
| 2026-05-05 19:27 | 49.54128 | 8.50956 | 15741 ft | 355 kts | 186° |
| 2026-05-05 19:28 | 49.51687 | 8.50642 | 16342 ft | 358 kts | 186° |
| 2026-05-05 19:28 | 49.49193 | 8.50317 | 16948 ft | 361 kts | 186° |
| 2026-05-05 19:28 | 49.46676 | 8.49987 | 17548 ft | 364 kts | 186° |
| 2026-05-05 19:28 | 49.44139 | 8.49654 | 18130 ft | 368 kts | 186° |
| 2026-05-05 19:29 | 49.41581 | 8.49320 | 18656 ft | 371 kts | 186° |
| 2026-05-05 19:29 | 49.39001 | 8.48982 | 19168 ft | 373 kts | 185° |
| 2026-05-05 19:29 | 49.36402 | 8.48641 | 19686 ft | 376 kts | 185° |
| 2026-05-05 19:29 | 49.33795 | 8.48300 | 20184 ft | 378 kts | 185° |
| 2026-05-05 19:30 | 49.31159 | 8.47955 | 20682 ft | 381 kts | 185° |
| 2026-05-05 19:30 | 49.28510 | 8.47613 | 21178 ft | 383 kts | 185° |
| 2026-05-05 19:30 | 49.25881 | 8.47200 | 21660 ft | 385 kts | 191° |
| 2026-05-05 19:30 | 49.23294 | 8.45929 | 22133 ft | 388 kts | 201° |
| 2026-05-05 19:31 | 49.20801 | 8.44430 | 22605 ft | 390 kts | 201° |
| 2026-05-05 19:31 | 49.18276 | 8.42904 | 23107 ft | 392 kts | 201° |
| 2026-05-05 19:31 | 49.15733 | 8.41369 | 23536 ft | 394 kts | 201° |
| 2026-05-05 19:31 | 49.13171 | 8.39827 | 23918 ft | 397 kts | 201° |
| 2026-05-05 19:32 | 49.10596 | 8.38282 | 24297 ft | 399 kts | 200° |
| 2026-05-05 19:32 | 49.08007 | 8.36731 | 24677 ft | 401 kts | 200° |
| 2026-05-05 19:32 | 49.05428 | 8.35249 | 25038 ft | 403 kts | 199° |
| 2026-05-05 19:32 | 49.02779 | 8.33808 | 25409 ft | 405 kts | 198° |
| 2026-05-05 19:33 | 49.00115 | 8.32402 | 25778 ft | 407 kts | 198° |
| 2026-05-05 19:33 | 48.97434 | 8.31002 | 26166 ft | 408 kts | 198° |
| 2026-05-05 19:33 | 48.94742 | 8.29592 | 26535 ft | 409 kts | 198° |
| 2026-05-05 19:33 | 48.92046 | 8.28172 | 26887 ft | 411 kts | 198° |
| 2026-05-05 19:34 | 48.89338 | 8.26734 | 27239 ft | 413 kts | 198° |
| 2026-05-05 19:34 | 48.86617 | 8.25283 | 27584 ft | 415 kts | 198° |
| 2026-05-05 19:34 | 48.83883 | 8.23824 | 27924 ft | 418 kts | 198° |
| 2026-05-05 19:35 | 48.78381 | 8.20890 | 28611 ft | 421 kts | 199° |
| 2026-05-05 19:35 | 48.75611 | 8.19415 | 29009 ft | 421 kts | 199° |
| 2026-05-05 19:35 | 48.72846 | 8.17944 | 29343 ft | 422 kts | 199° |
| 2026-05-05 19:35 | 48.70064 | 8.16464 | 29659 ft | 424 kts | 199° |
| 2026-05-05 19:36 | 48.67278 | 8.14982 | 29948 ft | 426 kts | 199° |
| 2026-05-05 19:36 | 48.64480 | 8.13500 | 30197 ft | 427 kts | 199° |
| 2026-05-05 19:36 | 48.61663 | 8.12013 | 30436 ft | 429 kts | 199° |
| 2026-05-05 19:36 | 48.58881 | 8.10544 | 30679 ft | 431 kts | 199° |
| 2026-05-05 19:37 | 48.56048 | 8.09049 | 30934 ft | 432 kts | 199° |
| 2026-05-05 19:37 | 48.53217 | 8.07557 | 31285 ft | 431 kts | 199° |
| 2026-05-05 19:37 | 48.50390 | 8.06068 | 31634 ft | 430 kts | 199° |
| 2026-05-05 19:37 | 48.47565 | 8.04581 | 31965 ft | 429 kts | 199° |
| 2026-05-05 19:38 | 48.44752 | 8.03109 | 32306 ft | 428 kts | 199° |
| 2026-05-05 19:38 | 48.41942 | 8.01641 | 32648 ft | 428 kts | 199° |
| 2026-05-05 19:38 | 48.39127 | 8.00173 | 32983 ft | 427 kts | 199° |
| 2026-05-05 19:38 | 48.36326 | 7.98710 | 33303 ft | 426 kts | 199° |
| 2026-05-05 19:39 | 48.33525 | 7.97248 | 33679 ft | 425 kts | 199° |
| 2026-05-05 19:39 | 48.30739 | 7.95797 | 33999 ft | 424 kts | 199° |
| 2026-05-05 19:39 | 48.28002 | 7.94371 | 34272 ft | 423 kts | 199° |
| 2026-05-05 19:39 | 48.25220 | 7.92914 | 34531 ft | 423 kts | 200° |
| 2026-05-05 19:40 | 48.22449 | 7.91457 | 34765 ft | 423 kts | 200° |
| 2026-05-05 19:40 | 48.16919 | 7.88546 | 34861 ft | 419 kts | 200° |
| 2026-05-05 19:41 | 48.11436 | 7.85674 | 34867 ft | 417 kts | 200° |
| 2026-05-05 19:41 | 48.05955 | 7.82811 | 34866 ft | 417 kts | 200° |
| 2026-05-05 19:42 | 48.00471 | 7.79954 | 34865 ft | 417 kts | 200° |
| 2026-05-05 19:42 | 47.95029 | 7.77120 | 34877 ft | 417 kts | 200° |
| 2026-05-05 19:43 | 47.89550 | 7.74285 | 34877 ft | 417 kts | 200° |
| 2026-05-05 19:43 | 47.84073 | 7.71465 | 34878 ft | 416 kts | 200° |
| 2026-05-05 19:44 | 47.78606 | 7.68649 | 34888 ft | 416 kts | 200° |
| 2026-05-05 19:44 | 47.73133 | 7.65830 | 34889 ft | 415 kts | 200° |
| 2026-05-05 19:45 | 47.67731 | 7.63057 | 34903 ft | 415 kts | 200° |
| 2026-05-05 19:45 | 47.62279 | 7.60262 | 34903 ft | 414 kts | 200° |
| 2026-05-05 19:46 | 47.56840 | 7.57477 | 34903 ft | 413 kts | 200° |
| 2026-05-05 19:46 | 47.51409 | 7.54708 | 34907 ft | 412 kts | 200° |
| 2026-05-05 19:47 | 47.46031 | 7.51977 | 34910 ft | 411 kts | 200° |
| 2026-05-05 19:47 | 47.40623 | 7.49232 | 34930 ft | 411 kts | 200° |
| 2026-05-05 19:48 | 47.35217 | 7.46493 | 34928 ft | 411 kts | 200° |
| 2026-05-05 19:48 | 47.29826 | 7.43769 | 34927 ft | 410 kts | 201° |
| 2026-05-05 19:49 | 47.24414 | 7.41034 | 34929 ft | 410 kts | 201° |
| 2026-05-05 19:49 | 47.19104 | 7.38176 | 34929 ft | 408 kts | 208° |
| 2026-05-05 19:50 | 47.14566 | 7.33323 | 34942 ft | 407 kts | 227° |
| 2026-05-05 19:50 | 47.12762 | 7.30120 | 35122 ft | 408 kts | 231° |
| 2026-05-05 19:50 | 47.10995 | 7.26842 | 35335 ft | 409 kts | 231° |
| 2026-05-05 19:50 | 47.09220 | 7.23581 | 35534 ft | 409 kts | 230° |
| 2026-05-05 19:51 | 47.07439 | 7.20322 | 35728 ft | 410 kts | 230° |
| 2026-05-05 19:51 | 47.05651 | 7.17052 | 35942 ft | 410 kts | 230° |
| 2026-05-05 19:51 | 47.03869 | 7.13787 | 36128 ft | 411 kts | 230° |
| 2026-05-05 19:51 | 47.02108 | 7.10557 | 36298 ft | 411 kts | 230° |
| 2026-05-05 19:52 | 47.00324 | 7.07286 | 36484 ft | 412 kts | 230° |
| 2026-05-05 19:52 | 46.98533 | 7.04012 | 36668 ft | 412 kts | 230° |
| 2026-05-05 19:52 | 46.96740 | 7.00743 | 36841 ft | 413 kts | 230° |
| 2026-05-05 19:53 | 46.93132 | 6.94190 | 36897 ft | 414 kts | 230° |
| 2026-05-05 19:53 | 46.89163 | 6.88205 | 36894 ft | 414 kts | 219° |
| 2026-05-05 19:54 | 46.84696 | 6.82888 | 36892 ft | 414 kts | 219° |
| 2026-05-05 19:54 | 46.80227 | 6.77569 | 36893 ft | 415 kts | 219° |
| 2026-05-05 19:55 | 46.75757 | 6.72261 | 36889 ft | 414 kts | 219° |
| 2026-05-05 19:55 | 46.71285 | 6.66953 | 36906 ft | 414 kts | 219° |
| 2026-05-05 19:56 | 46.66825 | 6.61665 | 36915 ft | 414 kts | 219° |
| 2026-05-05 19:56 | 46.62356 | 6.56391 | 36918 ft | 413 kts | 219° |
| 2026-05-05 19:57 | 46.57927 | 6.51171 | 36914 ft | 412 kts | 219° |
| 2026-05-05 19:57 | 46.53453 | 6.45948 | 36936 ft | 412 kts | 216° |
| 2026-05-05 19:57 | 46.50959 | 6.43905 | 36921 ft | 413 kts | 204° |
| 2026-05-05 19:58 | 46.48309 | 6.42277 | 36905 ft | 414 kts | 204° |
| 2026-05-05 19:58 | 46.42984 | 6.39052 | 36896 ft | 415 kts | 204° |
| 2026-05-05 19:59 | 46.37641 | 6.35840 | 36900 ft | 416 kts | 204° |
| 2026-05-05 19:59 | 46.32300 | 6.32633 | 36914 ft | 415 kts | 204° |
| 2026-05-05 20:00 | 46.27001 | 6.29455 | 36919 ft | 415 kts | 204° |
| 2026-05-05 20:00 | 46.21676 | 6.26259 | 36923 ft | 414 kts | 204° |
| 2026-05-05 20:01 | 46.16364 | 6.23049 | 36926 ft | 413 kts | 204° |
| 2026-05-05 20:01 | 46.11070 | 6.19821 | 36927 ft | 413 kts | 204° |
| 2026-05-05 20:02 | 46.05785 | 6.16602 | 36927 ft | 413 kts | 204° |
| 2026-05-05 20:02 | 46.00493 | 6.13398 | 36926 ft | 412 kts | 204° |
| 2026-05-05 20:03 | 45.95240 | 6.10242 | 36935 ft | 411 kts | 204° |
| 2026-05-05 20:03 | 45.89976 | 6.07078 | 36941 ft | 410 kts | 204° |
| 2026-05-05 20:04 | 45.84641 | 6.04229 | 36940 ft | 411 kts | 194° |
| 2026-05-05 20:04 | 45.78982 | 6.02931 | 36934 ft | 412 kts | 191° |
| 2026-05-05 20:05 | 45.73326 | 6.01704 | 36942 ft | 411 kts | 191° |
| 2026-05-05 20:05 | 45.67683 | 6.00462 | 36934 ft | 410 kts | 191° |
| 2026-05-05 20:06 | 45.62074 | 5.99230 | 36931 ft | 410 kts | 192° |
| 2026-05-05 20:06 | 45.56425 | 5.97987 | 36913 ft | 411 kts | 192° |
| 2026-05-05 20:07 | 45.50774 | 5.96739 | 36911 ft | 411 kts | 192° |
| 2026-05-05 20:07 | 45.45129 | 5.95404 | 36929 ft | 410 kts | 194° |
| 2026-05-05 20:08 | 45.39556 | 5.93660 | 36919 ft | 410 kts | 196° |
| 2026-05-05 20:08 | 45.34034 | 5.91806 | 36921 ft | 411 kts | 196° |
| 2026-05-05 20:09 | 45.28453 | 5.90014 | 36922 ft | 412 kts | 195° |
| 2026-05-05 20:09 | 45.22856 | 5.88285 | 36918 ft | 412 kts | 195° |
| 2026-05-05 20:10 | 45.17251 | 5.86564 | 36922 ft | 412 kts | 195° |
| 2026-05-05 20:10 | 45.11658 | 5.84833 | 36926 ft | 412 kts | 195° |
| 2026-05-05 20:11 | 45.06057 | 5.83097 | 36929 ft | 412 kts | 195° |
| 2026-05-05 20:11 | 45.00503 | 5.81382 | 36930 ft | 411 kts | 196° |
| 2026-05-05 20:12 | 44.94948 | 5.79536 | 36937 ft | 407 kts | 204° |
| 2026-05-05 20:12 | 44.89809 | 5.76308 | 36942 ft | 404 kts | 207° |
| 2026-05-05 20:13 | 44.84686 | 5.73039 | 36934 ft | 404 kts | 207° |
| 2026-05-05 20:13 | 44.79583 | 5.69789 | 36971 ft | 402 kts | 207° |
| 2026-05-05 20:14 | 44.74509 | 5.66563 | 36960 ft | 402 kts | 207° |
| 2026-05-05 20:14 | 44.69403 | 5.63331 | 36950 ft | 403 kts | 207° |
| 2026-05-05 20:15 | 44.64298 | 5.60096 | 36940 ft | 403 kts | 207° |
| 2026-05-05 20:15 | 44.59186 | 5.56858 | 36945 ft | 403 kts | 207° |
| 2026-05-05 20:16 | 44.54073 | 5.53623 | 36942 ft | 403 kts | 207° |
| 2026-05-05 20:16 | 44.48957 | 5.50407 | 36943 ft | 403 kts | 207° |
| 2026-05-05 20:17 | 44.43840 | 5.47201 | 36945 ft | 403 kts | 207° |
| 2026-05-05 20:17 | 44.38765 | 5.44036 | 36952 ft | 402 kts | 206° |
| 2026-05-05 20:18 | 44.33647 | 5.40871 | 36953 ft | 402 kts | 206° |
| 2026-05-05 20:18 | 44.28530 | 5.37729 | 36934 ft | 402 kts | 206° |
| 2026-05-05 20:19 | 44.23424 | 5.34585 | 36954 ft | 401 kts | 207° |
| 2026-05-05 20:19 | 44.18353 | 5.31456 | 36950 ft | 401 kts | 206° |
| 2026-05-05 20:20 | 44.13250 | 5.28314 | 36930 ft | 403 kts | 206° |
| 2026-05-05 20:20 | 44.08115 | 5.25166 | 36921 ft | 403 kts | 206° |
| 2026-05-05 20:21 | 44.02982 | 5.22030 | 36937 ft | 403 kts | 206° |
| 2026-05-05 20:21 | 43.97852 | 5.18906 | 36943 ft | 402 kts | 206° |
| 2026-05-05 20:22 | 43.92724 | 5.15781 | 36946 ft | 402 kts | 206° |
| 2026-05-05 20:22 | 43.87636 | 5.12679 | 36951 ft | 402 kts | 207° |
| 2026-05-05 20:23 | 43.82517 | 5.09568 | 36963 ft | 401 kts | 206° |
| 2026-05-05 20:23 | 43.77420 | 5.06479 | 36957 ft | 401 kts | 206° |
| 2026-05-05 20:24 | 43.72313 | 5.03395 | 36959 ft | 401 kts | 206° |
| 2026-05-05 20:24 | 43.67214 | 5.00317 | 36959 ft | 400 kts | 207° |
| 2026-05-05 20:25 | 43.62119 | 4.97247 | 36953 ft | 399 kts | 207° |
| 2026-05-05 20:25 | 43.57072 | 4.94212 | 36980 ft | 399 kts | 206° |
| 2026-05-05 20:26 | 43.51980 | 4.91154 | 36949 ft | 399 kts | 207° |
| 2026-05-05 20:26 | 43.46888 | 4.88097 | 36949 ft | 399 kts | 207° |
| 2026-05-05 20:27 | 43.41800 | 4.85048 | 36950 ft | 399 kts | 207° |
| 2026-05-05 20:27 | 43.36711 | 4.82013 | 36938 ft | 399 kts | 207° |
| 2026-05-05 20:28 | 43.31629 | 4.78985 | 36909 ft | 398 kts | 207° |
| 2026-05-05 20:28 | 43.26585 | 4.75984 | 36929 ft | 397 kts | 207° |
| 2026-05-05 20:29 | 43.21525 | 4.72986 | 36927 ft | 396 kts | 207° |
| 2026-05-05 20:29 | 43.16478 | 4.69990 | 36928 ft | 395 kts | 207° |
| 2026-05-05 20:30 | 43.11425 | 4.66999 | 36915 ft | 395 kts | 207° |
| 2026-05-05 20:30 | 43.06402 | 4.64021 | 36932 ft | 393 kts | 207° |
| 2026-05-05 20:31 | 43.01430 | 4.61046 | 36933 ft | 392 kts | 207° |
| 2026-05-05 20:31 | 42.96435 | 4.58059 | 36934 ft | 392 kts | 207° |
| 2026-05-05 20:32 | 42.91434 | 4.55084 | 36919 ft | 392 kts | 207° |
| 2026-05-05 20:32 | 42.86438 | 4.52119 | 36915 ft | 393 kts | 207° |
| 2026-05-05 20:33 | 42.81423 | 4.49143 | 36915 ft | 394 kts | 207° |
| 2026-05-05 20:33 | 42.76398 | 4.46168 | 36918 ft | 394 kts | 207° |
| 2026-05-05 20:34 | 42.71393 | 4.43223 | 36921 ft | 395 kts | 207° |
| 2026-05-05 20:34 | 42.66382 | 4.40269 | 36922 ft | 395 kts | 207° |
| 2026-05-05 20:35 | 42.61340 | 4.37294 | 36924 ft | 395 kts | 207° |
| 2026-05-05 20:35 | 42.56294 | 4.34324 | 36927 ft | 395 kts | 207° |
| 2026-05-05 20:36 | 42.51252 | 4.31366 | 36902 ft | 394 kts | 207° |
| 2026-05-05 20:36 | 42.46227 | 4.28427 | 36918 ft | 393 kts | 207° |
| 2026-05-05 20:37 | 42.41236 | 4.25521 | 36927 ft | 393 kts | 207° |
| 2026-05-05 20:37 | 42.36219 | 4.22598 | 36926 ft | 392 kts | 207° |
| 2026-05-05 20:38 | 42.31218 | 4.19675 | 36909 ft | 392 kts | 207° |
| 2026-05-05 20:38 | 42.26204 | 4.16749 | 36920 ft | 392 kts | 208° |
| 2026-05-05 20:39 | 42.21189 | 4.13843 | 36913 ft | 393 kts | 208° |
| 2026-05-05 20:39 | 42.16214 | 4.10815 | 36920 ft | 390 kts | 213° |
| 2026-05-05 20:40 | 42.11447 | 4.07292 | 36896 ft | 390 kts | 212° |
| 2026-05-05 20:40 | 42.06663 | 4.03793 | 36898 ft | 391 kts | 212° |
| 2026-05-05 20:41 | 42.01917 | 4.00330 | 36906 ft | 391 kts | 212° |
| 2026-05-05 20:41 | 41.97142 | 3.96836 | 36910 ft | 391 kts | 212° |
| 2026-05-05 20:42 | 41.92256 | 3.93585 | 36908 ft | 396 kts | 203° |
| 2026-05-05 20:42 | 41.86791 | 3.92071 | 36873 ft | 403 kts | 195° |
| 2026-05-05 20:43 | 41.81262 | 3.90801 | 36882 ft | 404 kts | 195° |
| 2026-05-05 20:43 | 41.75761 | 3.89514 | 36891 ft | 404 kts | 195° |
| 2026-05-05 20:44 | 41.70210 | 3.88226 | 36883 ft | 405 kts | 195° |
| 2026-05-05 20:44 | 41.64664 | 3.86953 | 36902 ft | 405 kts | 195° |
| 2026-05-05 20:45 | 41.56342 | 3.85044 | 36917 ft | 405 kts | 195° |
| 2026-05-05 20:45 | 41.50788 | 3.83773 | 36920 ft | 405 kts | 195° |
| 2026-05-05 20:46 | 41.45283 | 3.82515 | 36876 ft | 404 kts | 195° |
| 2026-05-05 20:46 | 41.42528 | 3.81885 | 36478 ft | 401 kts | 196° |
| 2026-05-05 20:46 | 41.39781 | 3.81258 | 35874 ft | 400 kts | 196° |
| 2026-05-05 20:47 | 41.37027 | 3.80630 | 35162 ft | 402 kts | 197° |
| 2026-05-05 20:47 | 41.34267 | 3.79999 | 34462 ft | 403 kts | 197° |
| 2026-05-05 20:47 | 41.31496 | 3.79369 | 33726 ft | 404 kts | 198° |
| 2026-05-05 20:47 | 41.28734 | 3.78740 | 32914 ft | 404 kts | 198° |
| 2026-05-05 20:48 | 41.25965 | 3.78108 | 32101 ft | 404 kts | 197° |
| 2026-05-05 20:48 | 41.23196 | 3.77475 | 31331 ft | 403 kts | 197° |
| 2026-05-05 20:48 | 41.20438 | 3.76847 | 30579 ft | 402 kts | 197° |
| 2026-05-05 20:48 | 41.17715 | 3.76231 | 29848 ft | 401 kts | 197° |
| 2026-05-05 20:49 | 41.15015 | 3.75440 | 29004 ft | 394 kts | 203° |
| 2026-05-05 20:49 | 41.12453 | 3.74218 | 28181 ft | 388 kts | 207° |
| 2026-05-05 20:49 | 41.09945 | 3.72914 | 27389 ft | 386 kts | 207° |
| 2026-05-05 20:49 | 41.07451 | 3.71625 | 26616 ft | 384 kts | 207° |
| 2026-05-05 20:50 | 41.04962 | 3.70346 | 25828 ft | 383 kts | 207° |
| 2026-05-05 20:50 | 41.03318 | 3.69502 | 25340 ft | 382 kts | 207° |
| 2026-05-05 20:50 | 41.00842 | 3.68231 | 24627 ft | 380 kts | 207° |
| 2026-05-05 20:50 | 40.97597 | 3.66561 | 23699 ft | 378 kts | 207° |
| 2026-05-05 20:51 | 40.95154 | 3.65305 | 22909 ft | 376 kts | 207° |
| 2026-05-05 20:51 | 40.92718 | 3.64056 | 22115 ft | 375 kts | 206° |
| 2026-05-05 20:51 | 40.90286 | 3.62809 | 21327 ft | 374 kts | 206° |
| 2026-05-05 20:51 | 40.87876 | 3.61578 | 20882 ft | 365 kts | 206° |
| 2026-05-05 20:52 | 40.85555 | 3.60398 | 20713 ft | 351 kts | 206° |
| 2026-05-05 20:52 | 40.84066 | 3.59643 | 20610 ft | 341 kts | 206° |
| 2026-05-05 20:52 | 40.81901 | 3.58543 | 20480 ft | 327 kts | 207° |
| 2026-05-05 20:52 | 40.79822 | 3.57484 | 20316 ft | 315 kts | 207° |
| 2026-05-05 20:53 | 40.77747 | 3.56416 | 19366 ft | 326 kts | 206° |
| 2026-05-05 20:53 | 40.74893 | 3.54937 | 18317 ft | 337 kts | 206° |
| 2026-05-05 20:53 | 40.72731 | 3.53826 | 17992 ft | 329 kts | 206° |
| 2026-05-05 20:53 | 40.71299 | 3.53097 | 17809 ft | 323 kts | 206° |
| 2026-05-05 20:54 | 40.69262 | 3.52066 | 17547 ft | 314 kts | 205° |
| 2026-05-05 20:54 | 40.67250 | 3.51051 | 17280 ft | 306 kts | 205° |
| 2026-05-05 20:54 | 40.65284 | 3.50057 | 17019 ft | 300 kts | 205° |
| 2026-05-05 20:54 | 40.63338 | 3.49066 | 16760 ft | 299 kts | 206° |
| 2026-05-05 20:55 | 40.61411 | 3.48086 | 16390 ft | 296 kts | 205° |
| 2026-05-05 20:55 | 40.59490 | 3.47111 | 15954 ft | 295 kts | 205° |
| 2026-05-05 20:55 | 40.57578 | 3.46139 | 15542 ft | 294 kts | 205° |
| 2026-05-05 20:55 | 40.55671 | 3.45167 | 15131 ft | 294 kts | 205° |
| 2026-05-05 20:56 | 40.53767 | 3.44198 | 14730 ft | 293 kts | 204° |
| 2026-05-05 20:56 | 40.51866 | 3.43236 | 14338 ft | 292 kts | 204° |
| 2026-05-05 20:56 | 40.49995 | 3.42290 | 13958 ft | 292 kts | 204° |
| 2026-05-05 20:56 | 40.48118 | 3.41342 | 13700 ft | 287 kts | 204° |
| 2026-05-05 20:57 | 40.45628 | 3.40101 | 13187 ft | 285 kts | 201° |
| 2026-05-05 20:57 | 40.44358 | 3.39648 | 12924 ft | 287 kts | 195° |
| 2026-05-05 20:57 | 40.42368 | 3.39350 | 12504 ft | 290 kts | 186° |
| 2026-05-05 20:57 | 40.40338 | 3.39438 | 12074 ft | 293 kts | 182° |
| 2026-05-05 20:58 | 40.38303 | 3.39556 | 11927 ft | 293 kts | 182° |
| 2026-05-05 20:58 | 40.36256 | 3.39670 | 11933 ft | 295 kts | 182° |
| 2026-05-05 20:58 | 40.34205 | 3.39787 | 11941 ft | 295 kts | 182° |
| 2026-05-05 20:58 | 40.32150 | 3.39905 | 11938 ft | 295 kts | 182° |
| 2026-05-05 20:59 | 40.30101 | 3.40023 | 11936 ft | 295 kts | 182° |
| 2026-05-05 20:59 | 40.28048 | 3.40143 | 11939 ft | 295 kts | 182° |
| 2026-05-05 20:59 | 40.26021 | 3.40259 | 11941 ft | 295 kts | 182° |
| 2026-05-05 20:59 | 40.23970 | 3.40369 | 11944 ft | 295 kts | 184° |
| 2026-05-05 21:00 | 40.21999 | 3.39911 | 11938 ft | 285 kts | 207° |
| 2026-05-05 21:00 | 40.20245 | 3.38744 | 11828 ft | 282 kts | 212° |
| 2026-05-05 21:00 | 40.18539 | 3.37505 | 11446 ft | 280 kts | 212° |
| 2026-05-05 21:00 | 40.16837 | 3.36261 | 11039 ft | 280 kts | 212° |
| 2026-05-05 21:01 | 40.15141 | 3.35021 | 10608 ft | 280 kts | 212° |
| 2026-05-05 21:01 | 40.13394 | 3.33737 | 9776 ft | 296 kts | 212° |
| 2026-05-05 21:01 | 40.11590 | 3.32407 | 9317 ft | 295 kts | 212° |
| 2026-05-05 21:01 | 40.09837 | 3.31119 | 8983 ft | 291 kts | 212° |
| 2026-05-05 21:02 | 40.08075 | 3.29823 | 8941 ft | 292 kts | 212° |
| 2026-05-05 21:02 | 40.06299 | 3.28518 | 8947 ft | 293 kts | 212° |
| 2026-05-05 21:02 | 40.04529 | 3.27219 | 8710 ft | 290 kts | 212° |
| 2026-05-05 21:02 | 40.02771 | 3.25930 | 8235 ft | 290 kts | 212° |
| 2026-05-05 21:03 | 40.01016 | 3.24642 | 7759 ft | 289 kts | 212° |
| 2026-05-05 21:03 | 39.99262 | 3.23355 | 7314 ft | 289 kts | 212° |
| 2026-05-05 21:03 | 39.97516 | 3.22070 | 6852 ft | 289 kts | 212° |
| 2026-05-05 21:03 | 39.95766 | 3.20778 | 6384 ft | 289 kts | 212° |
| 2026-05-05 21:04 | 39.94028 | 3.19497 | 6048 ft | 287 kts | 212° |
| 2026-05-05 21:04 | 39.92306 | 3.18226 | 5992 ft | 288 kts | 212° |
| 2026-05-05 21:04 | 39.90576 | 3.16952 | 5730 ft | 281 kts | 212° |
| 2026-05-05 21:04 | 39.88914 | 3.15736 | 5612 ft | 267 kts | 212° |
| 2026-05-05 21:05 | 39.87331 | 3.14586 | 5482 ft | 255 kts | 212° |
| 2026-05-05 21:05 | 39.85815 | 3.13495 | 5358 ft | 243 kts | 212° |
| 2026-05-05 21:05 | 39.84365 | 3.12459 | 5233 ft | 233 kts | 212° |
| 2026-05-05 21:05 | 39.82966 | 3.11467 | 5118 ft | 224 kts | 212° |
| 2026-05-05 21:06 | 39.81618 | 3.10521 | 4999 ft | 216 kts | 212° |
| 2026-05-05 21:06 | 39.80315 | 3.09609 | 4846 ft | 211 kts | 212° |
| 2026-05-05 21:06 | 39.79026 | 3.08714 | 4601 ft | 209 kts | 212° |
| 2026-05-05 21:06 | 39.77743 | 3.07823 | 4345 ft | 209 kts | 212° |
| 2026-05-05 21:07 | 39.76484 | 3.06946 | 4096 ft | 208 kts | 212° |
| 2026-05-05 21:07 | 39.75203 | 3.06054 | 3800 ft | 205 kts | 212° |
| 2026-05-05 21:07 | 39.73967 | 3.05187 | 3395 ft | 204 kts | 211° |
| 2026-05-05 21:07 | 39.72726 | 3.04302 | 3036 ft | 202 kts | 212° |
| 2026-05-05 21:08 | 39.71493 | 3.03411 | 3014 ft | 204 kts | 212° |
| 2026-05-05 21:08 | 39.70252 | 3.02518 | 3014 ft | 205 kts | 212° |
| 2026-05-05 21:08 | 39.69002 | 3.01621 | 3016 ft | 205 kts | 212° |
| 2026-05-05 21:08 | 39.67751 | 3.00722 | 3016 ft | 206 kts | 212° |
| 2026-05-05 21:09 | 39.66619 | 2.99636 | 3008 ft | 201 kts | 233° |
| 2026-05-05 21:09 | 39.65865 | 2.98123 | 3017 ft | 198 kts | 241° |
| 2026-05-05 21:09 | 39.65186 | 2.96670 | 3008 ft | 178 kts | 241° |
| 2026-05-05 21:09 | 39.64579 | 2.95376 | 3013 ft | 158 kts | 241° |
| 2026-05-05 21:10 | 39.64035 | 2.94216 | 3028 ft | 146 kts | 241° |
| 2026-05-05 21:10 | 39.63453 | 2.92969 | 2899 ft | 173 kts | 241° |
| 2026-05-05 21:10 | 39.62823 | 2.91628 | 2730 ft | 179 kts | 241° |
| 2026-05-05 21:10 | 39.62176 | 2.90252 | 2503 ft | 179 kts | 241° |
| 2026-05-05 21:11 | 39.61530 | 2.88879 | 2275 ft | 178 kts | 241° |
| 2026-05-05 21:11 | 39.60887 | 2.87512 | 2048 ft | 177 kts | 240° |
| 2026-05-05 21:11 | 39.60246 | 2.86151 | 1816 ft | 177 kts | 240° |
| 2026-05-05 21:11 | 39.59617 | 2.84816 | 1580 ft | 165 kts | 240° |
| 2026-05-05 21:12 | 39.59056 | 2.83626 | 1360 ft | 147 kts | 240° |
| 2026-05-05 21:12 | 39.58539 | 2.82528 | 1165 ft | 138 kts | 240° |
| 2026-05-05 21:12 | 39.58042 | 2.81474 | 991 ft | 136 kts | 239° |
| 2026-05-05 21:12 | 39.57553 | 2.80436 | 817 ft | 134 kts | 239° |
| 2026-05-05 21:13 | 39.57069 | 2.79412 | 635 ft | 136 kts | 238° |
| 2026-05-05 21:13 | 39.56564 | 2.78365 | 477 ft | 134 kts | 239° |
| 2026-05-05 21:13 | 39.56097 | 2.77335 | 273 ft | 134 kts | 239° |
| 2026-05-05 21:13 | 39.55606 | 2.76306 | 99 ft | 135 kts | 239° |
| 2026-05-05 21:14 | 39.55136 | 2.75303 | 29 ft | 118 kts | 238° |
| 2026-05-05 21:14 | 39.54802 | 2.74599 | 31 ft | 67 kts | 238° |
| 2026-05-05 21:14 | 39.54646 | 2.74270 | 32 ft | 24 kts | 239° |
| 2026-05-05 21:14 | 39.54567 | 2.74059 | 35 ft | 29 kts | 252° |
| 2026-05-05 21:15 | 39.54547 | 2.73806 | 34 ft | 9 kts | 270° |
| 2026-05-05 21:15 | 39.54547 | 2.73804 | 34 ft | 0 kts | 270° |
| 2026-05-05 21:16 | 39.54547 | 2.73782 | 35 ft | 7 kts | 270° |
| 2026-05-05 21:16 | 39.54564 | 2.73690 | 34 ft | 15 kts | 296° |
| 2026-05-05 21:16 | 39.54651 | 2.73615 | 35 ft | 16 kts | 348° |
| 2026-05-05 21:16 | 39.54709 | 2.73579 | 35 ft | 6 kts | 343° |
| 2026-05-05 21:17 | 39.54740 | 2.73608 | 35 ft | 5 kts | 54° |
| 2026-05-05 21:17 | 39.54749 | 2.73626 | 35 ft | 0 kts | 59° |
| 2026-05-05 21:17 | 39.54751 | 2.73633 | 35 ft | 0 kts | 62° |